Time;durP1;ratioP1;P1;durP2;ratioP2;P2;SDS_P1;SDS_P2;PMS_P1;PMS_P2;Temp;Humidity;BMP_temperature;BMP_pressure;BME280_temperature;BME280_humidity;BME280_pressure;Samples;Min_cycle;Max_cycle;Signal;HPM_P1;HPM_P2
2021/12/30 00:00:07;;;;;;;31.87;13.40;;;;;;;7.71;100.00;93907.13;5048705;28;20055;-66
2021/12/30 00:02:34;;;;;;;10.50;5.82;;;;;;;7.90;100.00;93897.66;5046437;28;20391;-67
2021/12/30 00:05:01;;;;;;;11.23;6.47;;;;;;;7.93;100.00;93902.34;5042689;28;20067;-67
2021/12/30 00:07:29;;;;;;;9.32;5.88;;;;;;;7.89;100.00;93910.56;5051763;28;20051;-67
2021/12/30 00:09:56;;;;;;;9.95;5.75;;;;;;;8.01;100.00;93912.06;5084533;28;20047;-66
2021/12/30 00:12:27;;;;;;;9.53;5.40;;;;;;;8.05;100.00;93912.00;5084355;28;20049;-67
2021/12/30 00:14:54;;;;;;;10.82;6.72;;;;;;;8.06;100.00;93913.59;5084273;28;20417;-66
2021/12/30 00:17:21;;;;;;;12.88;8.00;;;;;;;8.05;100.00;93922.94;5051747;28;20038;-67
2021/12/30 00:19:48;;;;;;;13.55;8.05;;;;;;;8.16;100.00;93931.88;5051352;28;20462;-67
2021/12/30 00:22:15;;;;;;;9.38;4.55;;;;;;;8.07;100.00;93932.31;5051545;28;20049;-67
2021/12/30 00:24:42;;;;;;;10.23;6.80;;;;;;;8.04;100.00;93938.56;5052436;28;20086;-67
2021/12/30 00:27:08;;;;;;;11.55;6.40;;;;;;;8.09;100.00;93940.09;5050198;28;20051;-66
2021/12/30 00:29:36;;;;;;;9.70;6.30;;;;;;;8.12;100.00;93961.97;5052131;28;20164;-67
2021/12/30 00:32:04;;;;;;;7.63;4.82;;;;;;;8.17;100.00;93952.56;5051872;28;20049;-67
2021/12/30 00:34:31;;;;;;;12.63;7.80;;;;;;;8.13;100.00;93969.00;5050303;28;20071;-67
2021/12/30 00:36:57;;;;;;;25.80;9.23;;;;;;;8.18;100.00;93968.56;5052169;28;20067;-67
2021/12/30 00:39:24;;;;;;;28.25;10.52;;;;;;;8.22;100.00;93967.78;5051345;28;20049;-67
2021/12/30 00:41:51;;;;;;;19.83;7.93;;;;;;;8.32;100.00;93970.44;5052115;28;20047;-67
2021/12/30 00:44:18;;;;;;;12.15;6.70;;;;;;;8.36;100.00;93973.94;5051266;28;20036;-66
2021/12/30 00:46:45;;;;;;;14.93;6.78;;;;;;;8.20;100.00;93977.13;5051734;28;20045;-67
2021/12/30 00:49:13;;;;;;;23.83;8.30;;;;;;;8.18;100.00;93981.47;5049608;28;20045;-66
2021/12/30 00:51:40;;;;;;;8.25;4.00;;;;;;;8.38;100.00;93989.94;5051740;28;20041;-67
2021/12/30 00:54:07;;;;;;;13.57;5.97;;;;;;;8.48;100.00;93991.09;5051233;28;20048;-64
2021/12/30 00:56:34;;;;;;;13.43;6.00;;;;;;;8.50;100.00;93992.25;5051554;28;20441;-66
2021/12/30 00:59:01;;;;;;;9.65;5.10;;;;;;;8.52;100.00;93994.59;5051610;28;20033;-67
2021/12/30 01:01:28;;;;;;;9.33;4.00;;;;;;;8.43;100.00;93994.22;5050961;28;20052;-67
2021/12/30 01:03:55;;;;;;;12.32;5.18;;;;;;;8.46;100.00;93979.78;5039799;28;20098;-67
2021/12/30 01:06:21;;;;;;;18.67;8.70;;;;;;;8.57;100.00;93985.94;5041314;28;20048;-67
2021/12/30 01:08:48;;;;;;;15.80;8.05;;;;;;;8.61;100.00;93983.97;5051325;28;20048;-67
2021/12/30 01:11:15;;;;;;;5.97;3.00;;;;;;;8.53;100.00;93988.72;5050562;28;20052;-66
2021/12/30 01:13:45;;;;;;;6.37;2.50;;;;;;;8.65;100.00;93992.16;5049869;28;20413;-67
2021/12/30 01:16:22;;;;;;;8.05;3.50;;;;;;;8.61;100.00;93994.91;5050615;28;20037;-66
2021/12/30 01:21:28;;;;;;;4.10;2.20;;;;;;;8.67;100.00;94017.16;5050730;28;20374;-67
2021/12/30 01:23:56;;;;;;;2.95;1.48;;;;;;;8.74;100.00;94026.09;5051316;28;20041;-67
2021/12/30 01:26:23;;;;;;;4.80;2.00;;;;;;;8.84;100.00;94020.97;5050551;28;20044;-66
2021/12/30 01:28:50;;;;;;;4.35;2.17;;;;;;;8.85;100.00;94026.00;5051122;28;20036;-67
2021/12/30 01:31:19;;;;;;;14.60;5.22;;;;;;;8.88;100.00;94029.91;5050488;28;20444;-67
2021/12/30 01:33:47;;;;;;;20.33;6.40;;;;;;;8.91;100.00;94027.13;5051086;28;20041;-67
2021/12/30 01:36:15;;;;;;;15.15;4.82;;;;;;;8.86;100.00;94030.31;5050248;28;20512;-67
2021/12/30 01:38:43;;;;;;;6.97;2.77;;;;;;;8.87;100.00;94034.59;5050937;28;20044;-67
2021/12/30 01:41:10;;;;;;;10.07;3.33;;;;;;;8.90;100.00;94046.72;5049896;28;20040;-66
2021/12/30 01:43:38;;;;;;;10.13;3.50;;;;;;;8.82;100.00;94047.94;5050823;28;20048;-67
2021/12/30 01:46:06;;;;;;;7.03;2.90;;;;;;;8.83;100.00;94042.06;5050456;28;20071;-67
2021/12/30 01:48:34;;;;;;;3.78;2.10;;;;;;;8.85;100.00;94049.88;5048930;28;20037;-67
2021/12/30 01:51:01;;;;;;;4.83;2.40;;;;;;;8.88;100.00;94054.56;5051098;28;20332;-68
2021/12/30 01:53:28;;;;;;;3.47;1.75;;;;;;;8.90;100.00;94055.69;5050337;28;20056;-68
2021/12/30 01:55:55;;;;;;;2.88;1.30;;;;;;;8.94;100.00;94059.19;5050556;28;20041;-67
2021/12/30 01:58:21;;;;;;;2.28;1.00;;;;;;;8.91;100.00;94064.69;5050030;28;20040;-67
2021/12/30 02:00:50;;;;;;;2.20;1.05;;;;;;;8.82;100.00;94069.84;5050579;28;20045;-67
2021/12/30 02:03:18;;;;;;;7.73;2.53;;;;;;;8.88;100.00;94069.00;5043919;28;20071;-66
2021/12/30 02:05:47;;;;;;;3.72;1.60;;;;;;;8.84;100.00;94064.75;5039573;28;20055;-66
2021/12/30 02:08:15;;;;;;;2.10;1.10;;;;;;;8.77;100.00;94071.03;5048272;28;20036;-66
2021/12/30 02:10:44;;;;;;;4.30;1.60;;;;;;;8.74;100.00;94069.09;5082159;28;20047;-66
2021/12/30 02:13:13;;;;;;;10.18;3.75;;;;;;;8.77;100.00;94076.50;5049481;28;20100;-66
2021/12/30 02:15:40;;;;;;;18.27;5.10;;;;;;;8.83;100.00;94080.38;5050260;28;20029;-67
2021/12/30 02:18:07;;;;;;;17.25;4.70;;;;;;;8.80;100.00;94086.66;5049861;28;20045;-67
2021/12/30 02:20:37;;;;;;;3.92;1.50;;;;;;;8.86;100.00;94085.06;5038548;28;20558;-67
2021/12/30 02:23:04;;;;;;;3.50;1.30;;;;;;;8.87;100.00;94092.06;5049243;28;20039;-67
2021/12/30 02:25:31;;;;;;;4.30;2.10;;;;;;;8.88;100.00;94088.16;5049515;28;20053;-66
2021/12/30 02:27:58;;;;;;;2.07;0.70;;;;;;;8.96;100.00;94088.91;5050232;28;20037;-66
2021/12/30 02:30:24;;;;;;;2.67;1.10;;;;;;;8.96;100.00;94092.41;5049113;28;20049;-67
2021/12/30 02:32:51;;;;;;;4.22;1.73;;;;;;;8.93;100.00;94087.75;5049902;28;20047;-66
2021/12/30 02:35:18;;;;;;;4.00;1.58;;;;;;;9.00;100.00;94097.88;5047906;28;20041;-66
2021/12/30 02:37:49;;;;;;;4.80;1.80;;;;;;;9.03;99.94;94091.56;5050011;28;20109;-67
2021/12/30 02:40:27;;;;;;;3.47;1.47;;;;;;;9.09;99.62;94089.97;5049090;28;20436;-66
2021/12/30 02:42:54;;;;;;;2.33;0.80;;;;;;;9.14;99.24;94100.50;5050029;28;20041;-66
2021/12/30 02:45:21;;;;;;;7.18;2.90;;;;;;;9.13;98.57;94101.69;5048797;28;20068;-66
2021/12/30 02:47:48;;;;;;;6.47;2.45;;;;;;;9.01;99.05;94102.16;5048018;28;20060;-66
2021/12/30 02:50:15;;;;;;;2.97;1.23;;;;;;;8.96;99.21;94100.63;5048732;28;20041;-66
2021/12/30 02:52:42;;;;;;;5.00;2.17;;;;;;;8.99;99.35;94110.78;5049595;28;20383;-66
2021/12/30 02:55:10;;;;;;;7.53;4.90;;;;;;;8.94;98.97;94100.25;5048934;28;20040;-66
2021/12/30 02:57:37;;;;;;;3.40;1.70;;;;;;;8.86;100.00;94112.41;5049611;28;20055;-67
2021/12/30 03:00:07;;;;;;;5.60;2.63;;;;;;;8.84;99.70;94106.56;5049434;28;20063;-67
2021/12/30 03:02:36;;;;;;;5.15;2.50;;;;;;;8.82;99.18;94111.66;5048334;28;20911;-66
2021/12/30 03:05:07;;;;;;;3.20;1.50;;;;;;;8.94;99.73;94111.19;5049462;28;20037;-66
2021/12/30 03:07:35;;;;;;;4.43;2.20;;;;;;;8.93;99.94;94111.59;5028862;28;20051;-67
2021/12/30 03:10:04;;;;;;;6.40;3.22;;;;;;;8.92;99.53;94113.56;5028024;28;20041;-67
2021/12/30 03:12:30;;;;;;;5.55;2.40;;;;;;;8.85;99.37;94110.06;5032398;28;20054;-66
2021/12/30 03:15:00;;;;;;;12.45;5.93;;;;;;;8.92;99.26;94113.56;5045135;28;20101;-66
2021/12/30 03:17:26;;;;;;;4.00;1.80;;;;;;;8.84;99.53;94103.81;5048372;28;20052;-66
2021/12/30 03:19:55;;;;;;;3.42;1.35;;;;;;;8.84;99.04;94109.31;5049371;28;20049;-67
2021/12/30 03:22:23;;;;;;;2.75;1.00;;;;;;;8.79;99.46;94113.25;5048543;28;20045;-66
2021/12/30 03:24:50;;;;;;;1.90;0.80;;;;;;;8.86;99.32;94106.94;5049057;28;20047;-66
2021/12/30 03:27:17;;;;;;;2.25;0.80;;;;;;;8.85;100.00;94110.84;5049308;28;20049;-67
2021/12/30 03:29:44;;;;;;;1.70;0.60;;;;;;;8.93;99.88;94111.59;5048441;28;20044;-67
2021/12/30 03:32:11;;;;;;;1.80;0.65;;;;;;;8.98;98.77;94109.22;5048863;28;20072;-67
2021/12/30 03:34:38;;;;;;;2.08;0.80;;;;;;;8.98;98.44;94117.44;5049412;28;20378;-67
2021/12/30 03:37:04;;;;;;;1.50;0.60;;;;;;;8.97;99.16;94117.81;5052417;28;20375;-67
2021/12/30 03:39:31;;;;;;;6.90;4.68;;;;;;;8.84;99.59;94114.00;5052210;28;20409;-67
2021/12/30 03:41:59;;;;;;;2.10;0.90;;;;;;;8.79;99.93;94113.25;5053136;28;20045;-66
2021/12/30 03:44:26;;;;;;;2.03;0.40;;;;;;;8.70;100.00;94115.63;5052210;28;20370;-67
2021/12/30 03:46:53;;;;;;;1.98;0.73;;;;;;;8.69;100.00;94118.75;5052832;28;20040;-66
2021/12/30 03:49:20;;;;;;;1.60;0.60;;;;;;;8.72;100.00;94124.22;5052539;28;20052;-66
2021/12/30 03:51:47;;;;;;;2.25;0.90;;;;;;;8.77;100.00;94129.28;5053036;28;20045;-66
2021/12/30 03:54:14;;;;;;;1.83;0.50;;;;;;;8.80;100.00;94138.66;5052091;28;20496;-66
2021/12/30 03:56:41;;;;;;;1.70;0.50;;;;;;;8.88;100.00;94142.13;5052510;28;20044;-66
2021/12/30 03:59:09;;;;;;;1.73;0.50;;;;;;;8.94;99.97;94137.78;5084622;28;20068;-65
2021/12/30 04:01:36;;;;;;;1.40;0.50;;;;;;;8.99;99.95;94137.34;5052742;28;20409;-67
2021/12/30 04:04:04;;;;;;;1.60;0.50;;;;;;;9.01;100.00;94140.47;5053689;28;20064;-67
2021/12/30 04:06:31;;;;;;;3.10;0.50;;;;;;;9.06;99.71;94142.81;5055113;28;20044;-67
2021/12/30 04:08:58;;;;;;;1.83;0.50;;;;;;;9.08;99.71;94148.66;5055794;28;20041;-69
2021/12/30 04:11:26;;;;;;;1.60;0.60;;;;;;;9.11;99.54;94161.53;5054720;28;20048;-68
2021/12/30 04:13:54;;;;;;;2.03;0.50;;;;;;;9.05;99.68;94160.41;5052731;28;20124;-67
2021/12/30 04:16:20;;;;;;;1.95;0.80;;;;;;;9.15;99.43;94156.81;5051544;28;20424;-66
2021/12/30 04:18:48;;;;;;;1.50;0.40;;;;;;;9.18;98.96;94160.72;5052361;28;20052;-67
2021/12/30 04:21:20;;;;;;;1.40;0.43;;;;;;;9.16;99.28;94160.34;5051472;28;20059;-66
2021/12/30 04:23:47;;;;;;;1.90;0.90;;;;;;;9.19;99.08;94165.81;5052408;28;20045;-66
2021/12/30 04:26:14;;;;;;;1.80;0.85;;;;;;;9.10;98.65;94170.94;5051673;28;20474;-66
2021/12/30 04:28:41;;;;;;;3.60;2.10;;;;;;;9.12;99.14;94171.31;5052401;28;20041;-66
2021/12/30 04:31:09;;;;;;;3.30;2.37;;;;;;;9.05;98.95;94171.34;5051761;28;20424;-66
2021/12/30 04:33:36;;;;;;;2.40;1.40;;;;;;;8.98;99.52;94177.66;5050995;28;20311;-66
2021/12/30 04:36:04;;;;;;;2.85;1.35;;;;;;;9.02;99.59;94185.84;5052099;28;20049;-66
2021/12/30 04:38:31;;;;;;;6.00;3.53;;;;;;;9.00;99.45;94177.25;5043885;28;20041;-66
2021/12/30 04:40:59;;;;;;;4.07;2.80;;;;;;;8.99;99.64;94189.38;5043951;28;20048;-66
2021/12/30 04:43:26;;;;;;;2.13;1.00;;;;;;;9.05;100.00;94187.78;5051167;28;20445;-67
2021/12/30 04:45:53;;;;;;;2.10;1.15;;;;;;;9.04;100.00;94199.91;5084060;28;20385;-66
2021/12/30 04:48:21;;;;;;;2.70;1.40;;;;;;;8.99;99.93;94194.84;5050905;28;20517;-66
2021/12/30 04:50:48;;;;;;;2.35;1.20;;;;;;;9.04;100.00;94193.66;5050494;28;20137;-66
2021/12/30 04:53:16;;;;;;;1.70;0.75;;;;;;;9.00;99.91;94202.66;5049966;28;20091;-66
2021/12/30 04:55:43;;;;;;;1.40;0.50;;;;;;;9.06;99.75;94210.47;5051842;28;20037;-67
2021/12/30 04:58:11;;;;;;;1.80;0.60;;;;;;;9.02;100.00;94206.97;5051361;28;20045;-66
2021/12/30 05:00:38;;;;;;;1.63;0.70;;;;;;;9.11;100.00;94218.25;5051836;28;20041;-66
2021/12/30 05:03:15;;;;;;;1.83;0.60;;;;;;;9.11;100.00;94210.81;5051692;28;20052;-67
2021/12/30 05:05:45;;;;;;;19.23;8.70;;;;;;;9.03;100.00;94214.00;5050848;28;20707;-66
2021/12/30 05:08:15;;;;;;;3.00;1.40;;;;;;;9.06;100.00;94213.22;5051096;28;20045;-66
2021/12/30 05:10:42;;;;;;;2.05;0.90;;;;;;;9.08;100.00;94210.84;5051431;28;20067;-67
2021/12/30 05:13:09;;;;;;;1.85;0.80;;;;;;;9.08;100.00;94219.06;5050806;28;20063;-65
2021/12/30 05:15:37;;;;;;;4.25;2.60;;;;;;;8.89;100.00;94232.03;5051349;28;20406;-66
2021/12/30 05:18:05;;;;;;;2.90;1.20;;;;;;;8.96;100.00;94228.50;5051211;28;20055;-66
2021/12/30 05:20:32;;;;;;;1.70;0.50;;;;;;;9.07;100.00;94225.72;5050911;28;20051;-67
2021/12/30 05:22:59;;;;;;;3.10;1.45;;;;;;;9.04;100.00;94226.53;5051251;28;20045;-67
2021/12/30 05:25:26;;;;;;;3.60;1.75;;;;;;;9.10;100.00;94217.47;5048942;28;20053;-66
2021/12/30 05:27:54;;;;;;;3.50;1.00;;;;;;;9.08;100.00;94221.81;5049680;28;20041;-67
2021/12/30 05:30:22;;;;;;;3.97;2.10;;;;;;;9.00;100.00;94226.53;5050180;28;20037;-66
2021/12/30 05:32:51;;;;;;;3.50;2.10;;;;;;;9.03;100.00;94239.41;5050835;28;20067;-66
2021/12/30 05:35:18;;;;;;;2.60;1.27;;;;;;;9.13;100.00;94243.28;5050415;28;20070;-66
2021/12/30 05:37:45;;;;;;;2.55;1.35;;;;;;;9.07;100.00;94240.16;5044316;28;20050;-66
2021/12/30 05:40:15;;;;;;;2.40;1.30;;;;;;;9.12;100.00;94245.25;5036580;28;20037;-66
2021/12/30 05:42:42;;;;;;;3.25;1.38;;;;;;;9.03;100.00;94247.63;5051243;28;20088;-66
2021/12/30 05:45:10;;;;;;;3.03;1.30;;;;;;;9.06;100.00;94243.31;5050319;28;20045;-66
2021/12/30 05:47:37;;;;;;;2.80;1.60;;;;;;;9.04;100.00;94262.88;5050741;28;20041;-67
2021/12/30 05:50:06;;;;;;;2.97;1.40;;;;;;;9.14;100.00;94258.53;5050733;28;20055;-66
2021/12/30 05:52:36;;;;;;;7.10;4.35;;;;;;;9.13;100.00;94263.22;5049514;28;21661;-66
2021/12/30 05:55:04;;;;;;;4.07;2.40;;;;;;;9.21;100.00;94263.97;5049270;28;20047;-67
2021/12/30 05:57:31;;;;;;;4.30;2.47;;;;;;;9.18;100.00;94273.78;5049460;28;20425;-66
2021/12/30 05:59:58;;;;;;;14.48;9.68;;;;;;;9.26;100.00;94274.53;5049721;28;20044;-66
2021/12/30 06:02:25;;;;;;;8.75;5.05;;;;;;;9.14;100.00;94273.00;5049609;28;20059;-66
2021/12/30 06:04:52;;;;;;;8.63;5.22;;;;;;;9.16;100.00;94269.88;5050498;28;20090;-67
2021/12/30 06:07:19;;;;;;;11.38;6.50;;;;;;;9.16;100.00;94278.88;5049384;28;20053;-66
2021/12/30 06:09:46;;;;;;;10.60;6.03;;;;;;;9.22;100.00;94287.44;5082754;28;20039;-66
2021/12/30 06:12:13;;;;;;;10.45;7.03;;;;;;;9.19;100.00;94293.72;5049835;28;20500;-66
2021/12/30 06:14:39;;;;;;;7.88;4.95;;;;;;;9.12;100.00;94289.06;5049893;28;20041;-67
2021/12/30 06:17:06;;;;;;;7.15;4.88;;;;;;;9.17;100.00;94285.13;5050238;28;20063;-66
2021/12/30 06:19:33;;;;;;;12.10;8.70;;;;;;;9.13;100.00;94295.31;5048763;28;20827;-67
2021/12/30 06:22:00;;;;;;;7.97;5.80;;;;;;;9.18;100.00;94297.63;5049906;28;20041;-66
2021/12/30 06:24:26;;;;;;;4.43;2.75;;;;;;;9.16;100.00;94302.75;5049498;28;20047;-66
2021/12/30 06:26:53;;;;;;;3.85;2.53;;;;;;;9.20;100.00;94298.81;5048968;28;20049;-67
2021/12/30 06:29:20;;;;;;;2.03;0.85;;;;;;;9.15;100.00;94299.19;5049323;28;20397;-66
2021/12/30 06:31:47;;;;;;;2.47;1.17;;;;;;;9.15;100.00;94296.47;5049940;28;20055;-68
2021/12/30 06:34:14;;;;;;;2.90;1.67;;;;;;;9.12;100.00;94291.78;5049391;28;20048;-66
2021/12/30 06:36:41;;;;;;;4.57;2.20;;;;;;;9.11;100.00;94297.66;5049355;28;20053;-66
2021/12/30 06:39:07;;;;;;;4.53;1.92;;;;;;;9.06;100.00;94298.09;5049882;28;20106;-64
2021/12/30 06:41:35;;;;;;;3.28;1.80;;;;;;;9.09;100.00;94300.00;5047948;28;20368;-67
2021/12/30 06:44:02;;;;;;;3.17;1.75;;;;;;;9.11;100.00;94297.66;5050021;28;20089;-66
2021/12/30 06:46:28;;;;;;;3.97;1.77;;;;;;;9.09;100.00;94297.28;5048920;28;20475;-67
2021/12/30 06:48:55;;;;;;;4.10;1.80;;;;;;;9.05;100.00;94305.50;5049793;28;20125;-66
2021/12/30 06:51:26;;;;;;;3.88;1.70;;;;;;;9.06;100.00;94307.06;5047591;28;20379;-66
2021/12/30 06:53:55;;;;;;;4.13;1.67;;;;;;;9.05;100.00;94318.41;5049404;28;20041;-66
2021/12/30 06:56:23;;;;;;;4.90;2.10;;;;;;;9.13;100.00;94322.69;5048708;28;20053;-66
2021/12/30 06:58:50;;;;;;;3.47;1.90;;;;;;;9.19;100.00;94329.31;5049531;28;20282;-66
2021/12/30 07:01:17;;;;;;;3.70;1.88;;;;;;;9.31;100.00;94326.13;5048841;28;20048;-66
2021/12/30 07:03:44;;;;;;;3.38;1.58;;;;;;;9.36;100.00;94320.25;5041187;28;20099;-66
2021/12/30 07:06:11;;;;;;;3.08;1.40;;;;;;;9.36;100.00;94331.22;5038044;28;20078;-66
2021/12/30 07:08:38;;;;;;;2.65;1.08;;;;;;;9.36;100.00;94336.69;5049141;28;20478;-67
2021/12/30 07:11:05;;;;;;;2.80;1.00;;;;;;;9.37;100.00;94332.75;5081594;28;20413;-67
2021/12/30 07:13:32;;;;;;;2.90;1.20;;;;;;;9.39;100.00;94337.84;5048493;28;20094;-67
2021/12/30 07:15:59;;;;;;;2.50;1.40;;;;;;;9.42;100.00;94345.28;5049109;28;20071;-67
2021/12/30 07:18:26;;;;;;;3.05;1.45;;;;;;;9.36;100.00;94333.19;5048478;28;20045;-66
2021/12/30 07:20:53;;;;;;;2.60;1.30;;;;;;;9.39;100.00;94335.09;5049359;28;20041;-67
2021/12/30 07:23:19;;;;;;;3.60;2.20;;;;;;;9.37;100.00;94348.41;5048803;28;20041;-66
2021/12/30 07:25:46;;;;;;;3.97;2.20;;;;;;;9.45;99.85;94346.44;5049311;28;20033;-67
2021/12/30 07:28:13;;;;;;;4.53;2.80;;;;;;;9.39;99.69;94346.84;5048633;28;20072;-66
2021/12/30 07:30:40;;;;;;;3.75;1.90;;;;;;;9.46;99.73;94348.00;5048536;28;20037;-66
2021/12/30 07:33:07;;;;;;;4.63;2.40;;;;;;;9.50;99.32;94357.78;5047993;28;20047;-67
2021/12/30 07:35:36;;;;;;;6.10;4.53;;;;;;;9.49;99.04;94355.44;5048225;28;20808;-66
2021/12/30 07:38:04;;;;;;;3.00;1.70;;;;;;;9.49;99.44;94358.16;5031361;28;20074;-67
2021/12/30 07:40:32;;;;;;;2.58;1.27;;;;;;;9.45;99.77;94360.91;5048470;28;20056;-66
2021/12/30 07:42:59;;;;;;;2.72;1.30;;;;;;;9.52;99.71;94360.91;5048609;28;20098;-68
2021/12/30 07:45:25;;;;;;;4.00;1.98;;;;;;;9.59;99.20;94368.28;5048411;28;20037;-68
2021/12/30 07:47:53;;;;;;;2.67;1.20;;;;;;;9.63;98.59;94365.53;5049726;28;20041;-67
2021/12/30 07:50:22;;;;;;;2.88;1.30;;;;;;;9.70;98.79;94368.25;5048371;28;20041;-66
2021/12/30 07:52:50;;;;;;;3.65;1.77;;;;;;;9.83;98.07;94371.31;5049125;28;20071;-67
2021/12/30 07:55:17;;;;;;;4.45;2.33;;;;;;;9.93;97.08;94381.44;5048822;28;20037;-67
2021/12/30 07:57:43;;;;;;;5.20;1.40;;;;;;;9.76;97.97;94378.41;5048612;28;20063;-67
2021/12/30 08:00:14;;;;;;;2.67;1.20;;;;;;;9.81;97.89;94377.19;5048361;28;20045;-67
2021/12/30 08:02:42;;;;;;;3.17;1.48;;;;;;;9.83;97.67;94380.31;5048823;28;20029;-67
2021/12/30 08:05:15;;;;;;;2.75;1.20;;;;;;;9.85;97.21;94380.69;5048407;28;20037;-66
2021/12/30 08:07:45;;;;;;;1.80;0.60;;;;;;;9.90;96.84;94388.53;5048585;28;20045;-67
2021/12/30 08:10:14;;;;;;;2.53;1.02;;;;;;;10.02;96.56;94387.28;5048676;28;20041;-66
2021/12/30 08:12:42;;;;;;;2.10;0.80;;;;;;;10.06;95.77;94390.78;5048908;28;20051;-67
2021/12/30 08:15:11;;;;;;;2.10;0.90;;;;;;;9.96;96.24;94388.88;5048475;28;20154;-66
2021/12/30 08:17:38;;;;;;;2.45;1.20;;;;;;;9.99;96.51;94388.84;5048812;28;20041;-67
2021/12/30 08:20:07;;;;;;;2.65;1.33;;;;;;;10.05;96.11;94399.41;5049093;28;20047;-67
2021/12/30 08:22:34;;;;;;;2.50;1.05;;;;;;;10.23;95.39;94391.84;5039929;28;21502;-67
2021/12/30 08:25:01;;;;;;;2.10;0.53;;;;;;;10.49;93.72;94398.00;5052514;28;20041;-67
2021/12/30 08:27:28;;;;;;;1.88;0.60;;;;;;;10.88;92.30;94399.63;5051766;28;20053;-67
2021/12/30 08:29:55;;;;;;;3.00;1.40;;;;;;;12.50;86.86;94402.09;5052001;28;20053;-67
2021/12/30 08:32:22;;;;;;;2.97;1.20;;;;;;;13.65;78.84;94400.19;5051700;28;20067;-67
2021/12/30 08:34:49;;;;;;;2.60;1.15;;;;;;;13.76;77.71;94411.00;5051917;28;20045;-68
2021/12/30 08:37:16;;;;;;;2.03;0.63;;;;;;;13.81;76.48;94405.00;5051576;28;20044;-68
2021/12/30 08:39:44;;;;;;;5.82;2.30;;;;;;;12.72;80.28;94408.06;5051997;28;20033;-68
2021/12/30 08:42:23;;;;;;;2.85;0.88;;;;;;;12.57;81.37;94414.97;5050364;28;20049;-67
2021/12/30 08:44:51;;;;;;;3.85;1.42;;;;;;;12.63;82.36;94410.53;5051741;28;20041;-67
2021/12/30 08:47:18;;;;;;;1.50;0.40;;;;;;;12.03;83.63;94412.94;5051651;28;20045;-68
2021/12/30 08:49:46;;;;;;;1.40;0.40;;;;;;;12.17;83.87;94412.00;5051769;28;20099;-68
2021/12/30 08:52:15;;;;;;;1.65;0.50;;;;;;;12.08;84.75;94420.75;5051403;28;20405;-68
2021/12/30 08:54:42;;;;;;;3.97;1.48;;;;;;;12.16;84.76;94416.72;5051640;28;20047;-71
2021/12/30 08:57:10;;;;;;;3.92;1.20;;;;;;;12.01;84.78;94422.81;5033522;28;20044;-68
2021/12/30 08:59:37;;;;;;;2.53;0.90;;;;;;;12.06;84.74;94419.63;5051212;28;20041;-68
2021/12/30 09:02:06;;;;;;;3.03;1.00;;;;;;;12.25;84.54;94426.44;5051964;28;20068;-68
2021/12/30 09:04:34;;;;;;;4.55;1.65;;;;;;;12.25;83.68;94424.47;5050369;28;20816;-68
2021/12/30 09:07:02;;;;;;;3.72;1.45;;;;;;;12.32;83.61;94431.84;5051646;28;20049;-68
2021/12/30 09:09:29;;;;;;;2.10;0.50;;;;;;;12.06;83.99;94422.38;5050827;28;20486;-67
2021/12/30 09:11:56;;;;;;;2.45;0.47;;;;;;;12.13;84.08;94430.50;5051290;28;20051;-67
2021/12/30 09:14:23;;;;;;;3.17;1.67;;;;;;;12.23;84.27;94426.84;5049355;28;20060;-67
2021/12/30 09:16:50;;;;;;;2.95;0.80;;;;;;;12.32;83.47;94418.88;5032577;28;20045;-68
2021/12/30 09:19:17;;;;;;;3.25;1.00;;;;;;;12.26;83.07;94428.00;5048959;28;20051;-67
2021/12/30 09:21:49;;;;;;;5.50;1.38;;;;;;;12.08;83.79;94429.00;5051126;28;20049;-67
2021/12/30 09:24:16;;;;;;;1.52;0.50;;;;;;;12.29;82.61;94429.91;5050946;28;20051;-67
2021/12/30 09:26:43;;;;;;;4.47;1.00;;;;;;;12.62;81.36;94431.03;5050960;28;20032;-68
2021/12/30 09:29:12;;;;;;;1.70;0.45;;;;;;;12.71;81.36;94425.00;5050539;28;20049;-67
2021/12/30 09:31:41;;;;;;;1.45;0.40;;;;;;;13.51;79.34;94422.50;5049231;28;20043;-67
2021/12/30 09:34:08;;;;;;;2.75;0.60;;;;;;;13.90;76.70;94418.22;5050461;28;20043;-66
2021/12/30 09:36:36;;;;;;;2.30;0.75;;;;;;;13.59;76.82;94427.47;5050975;28;20060;-68
2021/12/30 09:39:10;;;;;;;6.87;1.70;;;;;;;13.44;77.60;94431.69;5050922;28;20037;-68
2021/12/30 09:41:44;;;;;;;2.20;0.80;;;;;;;13.29;78.87;94422.88;5048838;28;20049;-68
2021/12/30 09:44:16;;;;;;;3.13;1.00;;;;;;;13.48;78.10;94428.84;5050516;28;20390;-68
2021/12/30 09:46:44;;;;;;;2.55;0.80;;;;;;;13.66;77.64;94426.56;5050669;28;20040;-68
2021/12/30 09:49:17;;;;;;;3.47;0.90;;;;;;;14.87;74.98;94425.22;5065975;28;20047;-67
2021/12/30 09:51:44;;;;;;;2.03;0.60;;;;;;;14.82;73.21;94422.97;5050514;28;20047;-68
2021/12/30 09:54:12;;;;;;;2.75;0.63;;;;;;;16.46;69.50;94419.03;5082804;28;20039;-67
2021/12/30 09:56:39;;;;;;;3.15;0.82;;;;;;;19.06;59.98;94416.03;5082893;28;20067;-68
2021/12/30 09:59:07;;;;;;;6.65;1.45;;;;;;;19.54;55.72;94396.97;5050733;28;20056;-69
2021/12/30 10:01:36;;;;;;;2.85;0.60;;;;;;;16.49;63.68;94410.63;5049633;28;21505;-68
2021/12/30 10:04:04;;;;;;;3.53;0.70;;;;;;;15.23;68.74;94410.53;5050899;28;20045;-68
2021/12/30 10:06:32;;;;;;;2.63;0.47;;;;;;;15.37;69.11;94401.06;5049662;28;20053;-68
2021/12/30 10:09:03;;;;;;;5.70;1.35;;;;;;;15.68;68.40;94406.22;5050299;28;20090;-68
2021/12/30 10:11:29;;;;;;;3.92;1.30;;;;;;;16.25;65.31;94404.63;5050089;28;20049;-68
2021/12/30 10:14:01;;;;;;;1.70;0.50;;;;;;;15.98;66.91;94397.47;5050093;28;20048;-68
2021/12/30 10:16:29;;;;;;;2.60;1.40;;;;;;;16.36;66.65;94404.31;5033433;28;20056;-68
2021/12/30 10:18:57;;;;;;;1.50;0.45;;;;;;;16.79;62.89;94391.91;5045925;28;20098;-68
2021/12/30 10:21:37;;;;;;;1.67;0.30;;;;;;;17.09;62.55;94396.13;5049955;28;20051;-68
2021/12/30 10:24:07;;;;;;;1.30;0.30;;;;;;;17.02;63.25;94398.34;5050044;28;20048;-68
2021/12/30 10:26:53;;;;;;;1.40;0.40;;;;;;;18.82;56.64;94395.56;5048992;28;20375;-68
2021/12/30 10:29:20;;;;;;;2.17;0.67;;;;;;;19.35;57.08;94387.03;5049659;28;20045;-69
2021/12/30 10:31:48;;;;;;;2.50;0.52;;;;;;;20.48;53.29;94392.88;5049518;28;20052;-68
2021/12/30 10:34:16;;;;;;;3.00;0.90;;;;;;;21.10;51.56;94380.44;5081884;28;20052;-68
2021/12/30 10:36:46;;;;;;;1.65;0.60;;;;;;;21.48;49.57;94373.41;5049920;28;20033;-69
2021/12/30 10:39:26;;;;;;;1.52;0.30;;;;;;;20.60;51.26;94386.38;5049365;28;20049;-68
2021/12/30 10:42:06;;;;;;;2.50;1.10;;;;;;;19.79;53.76;94389.59;5081982;28;20037;-68
2021/12/30 10:44:53;;;;;;;1.42;0.30;;;;;;;22.24;47.37;94379.50;5048576;28;20481;-68
2021/12/30 10:47:22;;;;;;;2.40;0.65;;;;;;;20.71;49.52;94386.66;5081706;28;20044;-69
2021/12/30 10:50:04;;;;;;;2.20;0.90;;;;;;;21.06;49.99;94383.41;5049684;28;20071;-69
2021/12/30 10:52:31;;;;;;;10.65;6.28;;;;;;;20.55;51.56;94387.75;5049565;28;20056;-69
2021/12/30 10:55:08;;;;;;;5.27;1.40;;;;;;;22.37;46.67;94378.44;5050271;28;20052;-69
2021/12/30 10:57:34;;;;;;;1.80;0.60;;;;;;;22.37;46.03;94382.00;5048304;28;20519;-69
2021/12/30 11:00:03;;;;;;;2.22;0.43;;;;;;;22.36;46.02;94393.69;5049427;28;20052;-70
2021/12/30 11:02:29;;;;;;;1.40;0.30;;;;;;;22.20;45.71;94392.09;5049215;28;20055;-69
2021/12/30 11:05:01;;;;;;;4.10;1.20;;;;;;;21.79;48.58;94408.56;5049400;28;20097;-69
2021/12/30 11:07:31;;;;;;;1.33;0.30;;;;;;;21.03;48.68;94398.31;5049064;28;20053;-69
2021/12/30 11:10:00;;;;;;;3.92;0.98;;;;;;;20.05;51.17;94397.63;5048311;28;20048;-69
2021/12/30 11:12:32;;;;;;;2.40;0.90;;;;;;;17.92;58.13;94391.31;5048808;28;20045;-69
2021/12/30 11:15:05;;;;;;;3.53;1.00;;;;;;;18.25;56.88;94390.94;5044282;28;20036;-68
2021/12/30 11:17:34;;;;;;;3.38;0.90;;;;;;;17.22;59.95;94398.84;5033142;28;20393;-68
2021/12/30 11:20:10;;;;;;;1.80;0.53;;;;;;;16.66;63.21;94399.44;5049585;28;20044;-69
2021/12/30 11:22:39;;;;;;;1.80;0.50;;;;;;;16.33;63.87;94391.34;5048116;28;20786;-68
2021/12/30 11:25:13;;;;;;;2.97;0.80;;;;;;;16.32;64.77;94390.56;5049437;28;20040;-68
2021/12/30 11:27:41;;;;;;;2.00;0.60;;;;;;;17.22;61.63;94390.53;5048609;28;20120;-69
2021/12/30 11:30:11;;;;;;;2.13;0.52;;;;;;;18.55;57.96;94386.63;5081167;28;20043;-69
2021/12/30 11:32:41;;;;;;;2.80;1.00;;;;;;;18.32;58.65;94393.44;5048041;28;20871;-68
2021/12/30 11:35:08;;;;;;;1.60;0.50;;;;;;;18.92;56.08;94389.56;5081369;28;20045;-69
2021/12/30 11:37:36;;;;;;;1.30;0.30;;;;;;;18.46;57.73;94396.91;5048311;28;20382;-69
2021/12/30 11:40:09;;;;;;;1.60;0.40;;;;;;;18.08;59.12;94390.34;5051729;28;20086;-68